Morrisville, NC

10:12 PM EST on February 05, 2016 (GMT -0500)
Town Hall Drive | | Change Station
CLOSE
Current Station
Personal Weather Station
Location: Morrisville, NC
Elevation: 325 ft
Nearby Weather Stations

Elev 325 ft 35.82 °N, 78.83 °W | Updated 32 seconds ago

Clear
Clear
29.1 °F
Feels Like 29 °F
N
0.0
Wind Variable Wind from North

Today
High -- | Low -- °F
--% Chance of Precip.
Yesterday
High -- | Low -- °F
Precip. -- in
Pressure 30.41 in
Visibility 10.0 miles
Clouds Few 25000 ft
Windchill 29 °F
Dew Point 28 °F
Humidity 96%
Rainfall 0.05 in
Snow Depth Not available.
7:12 AM 5:46 PM
Waning Crescent, 8% visible
METAR KRDU 060251Z 00000KT 10SM FEW250 00/M04 A3040 RMK AO2 SLP298 T00001044 53010
Pressure 30.41 in
Visibility 10.0 miles
Clouds Few 25000 ft
Windchill 29 °F
Dew Point 28 °F
Humidity 96%
Rainfall 0.05 in
Snow Depth Not available.
7:12 AM 5:46 PM
Waning Crescent, 8% visible
METAR KRDU 060251Z 00000KT 10SM FEW250 00/M04 A3040 RMK AO2 SLP298 T00001044 53010

10-Day Weather Forecast

Almanac

Astronomy

Feb. 05, 2016 Rise Set
Actual Time
Civil Twilight
Nautical Twilight
Astronomical Twilight
Moon
Length of Visible Light
Length of Day
Tomorrow will be .
, % of the Moon is Illuminated

Today's Extremes

State Highs State Lows

Community

WunderPhotos

Upload Photos

1,890,915 photos uploaded!

WunderBlog® & News

Nearby

Air Quality

  Air Quality AQ Index Pollutant
Not available.

Snow Depth

Station Depth Elevation

Earthquake Activity

City Distance Mag. Time & Date
Minimum magnitude displayed is 2.5.

Coastal Water Temperatures

Place Temperature

Stations

Nearby Weather Stations

Station Location Temp. Windchill Dew Point Humidity Wind Precip. Elev Updated Type
                   

Watches & Warnings

There are currently no watches in effect.